Time;durP1;ratioP1;P1;durP2;ratioP2;P2;SDS_P1;SDS_P2;PMS_P1;PMS_P2;Temp;Humidity;BMP_temperature;BMP_pressure;BME280_temperature;BME280_humidity;BME280_pressure;Samples;Min_cycle;Max_cycle;Signal;HPM_P1;HPM_P2
2023/09/06 00:00:49;;;;;;;10.57;6.00;;;;;;;;;;5015119;28;20196;-85
2023/09/06 00:03:16;;;;;;;7.47;4.70;;;;;;;;;;5014944;28;20184;-85
2023/09/06 00:05:42;;;;;;;7.03;5.07;;;;;;;;;;5015857;28;20189;-85
2023/09/06 00:08:09;;;;;;;6.33;4.47;;;;;;;;;;5015514;28;20188;-85
2023/09/06 00:10:38;;;;;;;5.50;4.13;;;;;;;;;;5015791;28;20224;-85
2023/09/06 00:13:06;;;;;;;9.20;4.37;;;;;;;;;;5014647;28;20240;-85
2023/09/06 00:15:32;;;;;;;5.00;4.00;;;;;;;;;;4998472;28;20205;-85
2023/09/06 00:17:58;;;;;;;7.47;4.60;;;;;;;;;;5014677;28;20220;-85
2023/09/06 00:20:24;;;;;;;6.70;4.73;;;;;;;;;;5015261;28;20186;-85
2023/09/06 00:23:14;;;;;;;7.77;4.60;;;;;;;;;;5015732;28;20242;-86
2023/09/06 00:25:40;;;;;;;5.50;4.37;;;;;;;;;;5004495;28;20201;-85
2023/09/06 00:28:09;;;;;;;7.07;4.07;;;;;;;;;;5013422;28;20193;-85
2023/09/06 00:30:35;;;;;;;5.03;4.40;;;;;;;;;;5013798;28;20217;-85
2023/09/06 00:33:07;;;;;;;5.57;4.63;;;;;;;;;;5014850;28;20201;-85
2023/09/06 00:35:33;;;;;;;5.40;4.00;;;;;;;;;;5015188;28;20189;-85
2023/09/06 00:38:05;;;;;;;6.13;4.57;;;;;;;;;;4996354;28;20215;-85
2023/09/06 00:40:31;;;;;;;5.77;4.10;;;;;;;;;;4999676;28;20271;-85
2023/09/06 00:43:03;;;;;;;5.87;4.07;;;;;;;;;;4999083;28;20193;-85
2023/09/06 00:45:32;;;;;;;4.67;4.23;;;;;;;;;;4999305;28;20201;-85
2023/09/06 00:48:01;;;;;;;4.70;4.20;;;;;;;;;;5015669;28;20185;-85
2023/09/06 00:50:27;;;;;;;4.33;3.90;;;;;;;;;;5012780;28;20226;-85
2023/09/06 00:52:53;;;;;;;7.03;3.93;;;;;;;;;;5014243;28;20201;-85
2023/09/06 00:55:20;;;;;;;8.00;4.07;;;;;;;;;;5014457;28;20213;-85
2023/09/06 00:57:49;;;;;;;5.87;4.20;;;;;;;;;;5010839;28;20184;-85
2023/09/06 01:00:17;;;;;;;4.37;3.97;;;;;;;;;;5015003;28;20204;-85
2023/09/06 01:02:47;;;;;;;5.60;3.93;;;;;;;;;;5012603;28;20268;-85
2023/09/06 01:05:13;;;;;;;7.43;4.53;;;;;;;;;;5014013;28;20182;-85
2023/09/06 01:07:40;;;;;;;8.33;4.47;;;;;;;;;;5014377;28;20242;-85
2023/09/06 01:10:09;;;;;;;5.77;4.43;;;;;;;;;;5014339;28;20220;-84
2023/09/06 01:12:35;;;;;;;7.97;4.37;;;;;;;;;;5014147;28;20178;-85
2023/09/06 01:15:07;;;;;;;5.70;4.40;;;;;;;;;;5003688;28;20173;-85
2023/09/06 01:17:36;;;;;;;5.67;4.43;;;;;;;;;;5011672;28;20204;-84
2023/09/06 01:20:15;;;;;;;5.37;4.30;;;;;;;;;;5008839;28;20178;-85
2023/09/06 01:22:44;;;;;;;5.00;4.10;;;;;;;;;;5004482;28;20246;-85
2023/09/06 01:25:11;;;;;;;5.47;4.33;;;;;;;;;;5015513;28;20208;-85
2023/09/06 01:27:38;;;;;;;5.20;4.70;;;;;;;;;;5014507;28;20308;-84
2023/09/06 01:30:04;;;;;;;5.10;4.60;;;;;;;;;;5013407;28;20219;-84
2023/09/06 01:32:30;;;;;;;5.23;4.33;;;;;;;;;;4993773;28;20254;-84
2023/09/06 01:34:56;;;;;;;7.27;5.00;;;;;;;;;;4997364;28;20293;-85
2023/09/06 01:37:25;;;;;;;6.30;4.57;;;;;;;;;;4997781;28;20282;-84
2023/09/06 01:39:51;;;;;;;5.17;4.37;;;;;;;;;;5013701;28;20236;-84
2023/09/06 01:42:22;;;;;;;5.23;4.73;;;;;;;;;;5001837;28;20181;-84
2023/09/06 01:44:49;;;;;;;6.93;4.80;;;;;;;;;;5009729;28;20209;-84
2023/09/06 01:47:15;;;;;;;6.53;4.50;;;;;;;;;;5013487;28;20193;-85
2023/09/06 01:49:41;;;;;;;4.83;4.30;;;;;;;;;;4996655;28;20193;-85
2023/09/06 01:52:07;;;;;;;5.27;4.30;;;;;;;;;;5013833;28;20205;-85
2023/09/06 01:54:33;;;;;;;7.00;4.27;;;;;;;;;;5014158;28;20177;-84
2023/09/06 01:56:59;;;;;;;8.03;4.43;;;;;;;;;;5013224;28;20233;-84
2023/09/06 01:59:25;;;;;;;6.13;4.40;;;;;;;;;;5012798;28;20181;-84
2023/09/06 02:01:56;;;;;;;6.70;4.80;;;;;;;;;;4997222;28;20196;-84
2023/09/06 02:04:22;;;;;;;6.03;4.30;;;;;;;;;;5013378;28;20182;-84
2023/09/06 02:06:49;;;;;;;6.77;4.57;;;;;;;;;;5013141;28;20187;-84
2023/09/06 02:09:17;;;;;;;4.63;4.23;;;;;;;;;;5013818;28;20177;-83
2023/09/06 02:11:43;;;;;;;6.83;4.30;;;;;;;;;;5012367;28;20213;-84
2023/09/06 02:14:09;;;;;;;6.30;4.53;;;;;;;;;;5008777;28;20182;-84
2023/09/06 02:16:35;;;;;;;5.63;4.70;;;;;;;;;;5007568;28;20177;-84
2023/09/06 02:19:01;;;;;;;5.67;4.67;;;;;;;;;;5004743;28;20252;-84
2023/09/06 02:21:28;;;;;;;7.07;4.47;;;;;;;;;;5026556;28;20263;-84
2023/09/06 02:23:56;;;;;;;6.77;4.23;;;;;;;;;;5013759;28;20169;-84
2023/09/06 02:26:22;;;;;;;4.90;4.40;;;;;;;;;;5002953;28;20182;-84
2023/09/06 02:28:50;;;;;;;4.93;4.23;;;;;;;;;;5011087;28;20192;-83
2023/09/06 02:31:16;;;;;;;4.87;4.10;;;;;;;;;;5011082;28;20209;-84
2023/09/06 02:33:44;;;;;;;5.37;4.33;;;;;;;;;;5012532;28;20245;-84
2023/09/06 02:36:10;;;;;;;5.00;4.10;;;;;;;;;;5012382;28;20208;-84
2023/09/06 02:38:36;;;;;;;5.33;4.30;;;;;;;;;;5013094;28;20185;-83
2023/09/06 02:41:03;;;;;;;5.43;4.17;;;;;;;;;;5012355;28;20189;-84
2023/09/06 02:43:31;;;;;;;7.30;4.47;;;;;;;;;;5013304;28;20205;-84
2023/09/06 02:46:02;;;;;;;5.30;4.33;;;;;;;;;;5012513;28;20243;-84
2023/09/06 02:48:29;;;;;;;6.53;4.30;;;;;;;;;;4993363;28;20194;-84
2023/09/06 02:50:58;;;;;;;7.07;4.17;;;;;;;;;;5003929;28;20216;-84
2023/09/06 02:53:31;;;;;;;8.30;4.50;;;;;;;;;;5011843;28;20219;-83
2023/09/06 02:55:57;;;;;;;5.80;4.50;;;;;;;;;;5005685;28;20228;-84
2023/09/06 02:58:27;;;;;;;7.27;4.27;;;;;;;;;;5020855;28;20189;-84
2023/09/06 03:00:57;;;;;;;4.80;4.30;;;;;;;;;;5027420;28;20191;-83
2023/09/06 03:03:27;;;;;;;4.90;4.40;;;;;;;;;;5025926;28;20189;-83
2023/09/06 03:05:56;;;;;;;5.13;4.33;;;;;;;;;;5028335;28;20203;-83
2023/09/06 03:08:25;;;;;;;4.77;4.23;;;;;;;;;;5016427;28;20196;-84
2023/09/06 03:10:54;;;;;;;5.93;4.27;;;;;;;;;;5021942;28;20220;-83
2023/09/06 03:13:20;;;;;;;5.73;4.50;;;;;;;;;;5027269;28;20182;-83
2023/09/06 03:15:51;;;;;;;4.90;4.40;;;;;;;;;;5026954;28;20194;-84
2023/09/06 03:18:19;;;;;;;6.27;4.30;;;;;;;;;;5015785;28;20191;-83
2023/09/06 03:20:45;;;;;;;8.83;4.47;;;;;;;;;;5031032;28;20199;-83
2023/09/06 03:23:17;;;;;;;4.70;4.27;;;;;;;;;;5021368;28;20193;-84
2023/09/06 03:25:54;;;;;;;6.10;4.00;;;;;;;;;;5025162;28;20192;-83
2023/09/06 03:28:20;;;;;;;4.17;3.77;;;;;;;;;;5018641;28;20188;-83
2023/09/06 03:30:47;;;;;;;7.90;4.77;;;;;;;;;;5025070;28;20212;-84
2023/09/06 03:33:13;;;;;;;5.37;4.20;;;;;;;;;;5022795;28;20176;-84
2023/09/06 03:35:39;;;;;;;5.93;4.63;;;;;;;;;;5031595;28;20185;-84
2023/09/06 03:38:08;;;;;;;5.37;4.37;;;;;;;;;;5019985;28;20216;-84
2023/09/06 03:40:37;;;;;;;4.97;4.23;;;;;;;;;;5012048;28;20185;-83
2023/09/06 03:43:17;;;;;;;7.23;4.63;;;;;;;;;;4999875;28;20189;-84
2023/09/06 03:45:51;;;;;;;5.30;4.30;;;;;;;;;;5031388;28;20283;-84
2023/09/06 03:48:23;;;;;;;5.03;4.57;;;;;;;;;;5030668;28;20279;-84
2023/09/06 03:50:52;;;;;;;7.83;4.30;;;;;;;;;;5020842;28;20215;-84
2023/09/06 03:53:18;;;;;;;6.90;4.33;;;;;;;;;;5022130;28;20243;-84
2023/09/06 03:55:49;;;;;;;6.03;4.17;;;;;;;;;;5018517;28;20328;-84
2023/09/06 03:58:15;;;;;;;5.13;4.53;;;;;;;;;;5004381;28;20232;-84
2023/09/06 04:00:44;;;;;;;7.07;4.37;;;;;;;;;;5011441;28;20188;-84
2023/09/06 04:03:14;;;;;;;5.73;4.70;;;;;;;;;;5008904;28;20209;-84
2023/09/06 04:05:43;;;;;;;5.63;4.23;;;;;;;;;;5011831;28;20193;-84
2023/09/06 04:08:09;;;;;;;6.07;4.27;;;;;;;;;;5014423;28;20277;-84
2023/09/06 04:10:44;;;;;;;5.50;4.27;;;;;;;;;;5015860;28;20213;-84
2023/09/06 04:13:10;;;;;;;8.13;4.60;;;;;;;;;;5014885;28;20184;-84
2023/09/06 04:15:37;;;;;;;5.30;4.80;;;;;;;;;;5013632;28;20185;-84
2023/09/06 04:18:04;;;;;;;6.03;4.90;;;;;;;;;;5015645;28;20199;-83
2023/09/06 04:20:31;;;;;;;5.70;4.43;;;;;;;;;;5014423;28;20224;-83
2023/09/06 04:22:58;;;;;;;7.90;4.40;;;;;;;;;;4998770;28;20193;-83
2023/09/06 04:25:26;;;;;;;5.70;4.67;;;;;;;;;;5014329;28;20193;-83
2023/09/06 04:27:55;;;;;;;7.87;4.80;;;;;;;;;;5014706;28;20205;-84
2023/09/06 04:30:32;;;;;;;6.07;4.67;;;;;;;;;;5014475;28;20213;-84
2023/09/06 04:32:58;;;;;;;5.60;4.60;;;;;;;;;;5013857;28;20251;-84
2023/09/06 04:35:43;;;;;;;4.70;4.30;;;;;;;;;;5015304;28;20178;-85
2023/09/06 04:38:09;;;;;;;5.57;4.57;;;;;;;;;;4997193;28;20204;-85
2023/09/06 04:40:37;;;;;;;6.23;4.80;;;;;;;;;;5014448;28;20191;-84
2023/09/06 04:43:03;;;;;;;5.17;4.40;;;;;;;;;;5010104;28;20186;-86
2023/09/06 04:45:32;;;;;;;7.37;4.50;;;;;;;;;;5003137;28;20181;-85
2023/09/06 04:47:58;;;;;;;4.60;4.20;;;;;;;;;;5012989;28;20239;-86
2023/09/06 04:50:24;;;;;;;5.47;4.53;;;;;;;;;;4995401;28;20224;-88
2023/09/06 04:52:59;;;;;;;6.27;4.60;;;;;;;;;;5012415;28;20228;-89
2023/09/06 04:55:25;;;;;;;5.37;4.87;;;;;;;;;;5014972;28;20213;-89
2023/09/06 04:57:54;;;;;;;6.70;4.90;;;;;;;;;;4999369;28;20189;-89
2023/09/06 05:00:30;;;;;;;8.77;5.13;;;;;;;;;;5007396;28;20209;-88
2023/09/06 05:03:08;;;;;;;7.20;4.80;;;;;;;;;;5010602;28;20181;-89
2023/09/06 05:05:45;;;;;;;7.20;4.80;;;;;;;;;;5013425;28;20185;-88
2023/09/06 05:08:11;;;;;;;6.20;4.77;;;;;;;;;;5012712;28;20291;-86
2023/09/06 05:10:37;;;;;;;6.77;4.67;;;;;;;;;;5014980;28;20212;-87
2023/09/06 05:13:07;;;;;;;5.97;4.90;;;;;;;;;;5015352;28;20181;-86
2023/09/06 05:15:36;;;;;;;7.40;4.60;;;;;;;;;;5015041;28;20181;-87
2023/09/06 05:18:02;;;;;;;5.20;4.50;;;;;;;;;;5014643;28;20182;-87
2023/09/06 05:20:37;;;;;;;6.30;4.70;;;;;;;;;;5015017;28;20319;-86
2023/09/06 05:23:04;;;;;;;5.30;4.80;;;;;;;;;;5014686;28;20177;-86
2023/09/06 05:25:34;;;;;;;6.17;4.30;;;;;;;;;;5014880;28;20197;-87
2023/09/06 05:28:01;;;;;;;6.27;4.83;;;;;;;;;;5015036;28;20188;-86
2023/09/06 05:30:27;;;;;;;5.73;4.80;;;;;;;;;;5014706;28;20216;-86
2023/09/06 05:32:57;;;;;;;5.40;4.63;;;;;;;;;;5014709;28;20177;-86
2023/09/06 05:35:23;;;;;;;5.73;5.13;;;;;;;;;;5014681;28;20184;-87
2023/09/06 05:37:49;;;;;;;6.67;5.40;;;;;;;;;;5014656;28;20181;-87
2023/09/06 05:40:26;;;;;;;5.60;5.07;;;;;;;;;;4998311;28;20189;-86
2023/09/06 05:42:52;;;;;;;5.93;5.40;;;;;;;;;;5014480;28;20239;-87
2023/09/06 05:45:21;;;;;;;6.73;5.50;;;;;;;;;;5014542;28;20185;-86
2023/09/06 05:47:50;;;;;;;6.37;5.37;;;;;;;;;;5014694;28;20263;-87
2023/09/06 05:50:17;;;;;;;5.60;4.90;;;;;;;;;;5014518;28;20205;-87
2023/09/06 05:52:44;;;;;;;6.33;4.90;;;;;;;;;;5013913;28;20208;-87
2023/09/06 05:55:12;;;;;;;5.53;5.03;;;;;;;;;;5016382;28;20240;-87
2023/09/06 05:57:38;;;;;;;7.23;5.47;;;;;;;;;;5017742;28;20177;-87
2023/09/06 06:00:12;;;;;;;7.03;5.50;;;;;;;;;;5018046;28;20181;-86
2023/09/06 06:02:38;;;;;;;5.80;5.00;;;;;;;;;;5002336;28;20276;-86
2023/09/06 06:05:04;;;;;;;6.77;5.50;;;;;;;;;;5017306;28;20173;-87
2023/09/06 06:07:30;;;;;;;8.03;5.80;;;;;;;;;;5017221;28;20212;-87
2023/09/06 06:09:56;;;;;;;7.00;5.90;;;;;;;;;;5016817;28;20263;-87
2023/09/06 06:12:24;;;;;;;7.03;6.23;;;;;;;;;;5017151;28;20180;-88
2023/09/06 06:14:51;;;;;;;6.20;5.70;;;;;;;;;;5017126;28;20208;-88
2023/09/06 06:17:18;;;;;;;7.27;6.57;;;;;;;;;;5017324;28;20177;-88
2023/09/06 06:19:44;;;;;;;7.50;6.80;;;;;;;;;;5016799;28;20180;-88
2023/09/06 06:22:11;;;;;;;7.90;7.20;;;;;;;;;;5017234;28;20176;-88
2023/09/06 06:24:40;;;;;;;8.03;6.83;;;;;;;;;;5017030;28;20176;-88
2023/09/06 06:27:06;;;;;;;8.83;7.17;;;;;;;;;;5016705;28;20180;-88
2023/09/06 06:29:32;;;;;;;8.10;7.27;;;;;;;;;;5016509;28;20185;-88
2023/09/06 06:31:58;;;;;;;8.47;7.63;;;;;;;;;;5016884;28;20234;-87
2023/09/06 06:34:25;;;;;;;8.20;7.40;;;;;;;;;;5016674;28;20263;-88
2023/09/06 06:36:51;;;;;;;11.13;7.73;;;;;;;;;;5016962;28;20177;-87
2023/09/06 06:39:17;;;;;;;8.33;7.57;;;;;;;;;;5016745;28;20184;-88
2023/09/06 06:41:44;;;;;;;7.73;5.00;;;;;;;;;;5016463;28;20188;-87
2023/09/06 06:44:12;;;;;;;8.23;7.23;;;;;;;;;;5016904;28;20185;-89
2023/09/06 06:46:39;;;;;;;8.03;7.33;;;;;;;;;;5010658;28;20278;-87
2023/09/06 06:49:07;;;;;;;12.00;7.47;;;;;;;;;;5022799;28;20193;-88
2023/09/06 06:51:38;;;;;;;12.63;8.10;;;;;;;;;;5011829;28;20216;-89
2023/09/06 06:54:06;;;;;;;9.23;7.70;;;;;;;;;;5028039;28;20181;-88
2023/09/06 06:56:32;;;;;;;8.27;7.47;;;;;;;;;;5015538;28;20311;-89
2023/09/06 06:58:58;;;;;;;9.23;8.03;;;;;;;;;;5000136;28;20195;-87
2023/09/06 07:01:24;;;;;;;12.57;8.00;;;;;;;;;;5016715;28;20230;-89
2023/09/06 07:03:51;;;;;;;8.97;8.10;;;;;;;;;;5016610;28;20231;-88
2023/09/06 07:06:17;;;;;;;11.20;8.67;;;;;;;;;;4995758;28;20181;-89
2023/09/06 07:08:46;;;;;;;9.57;7.83;;;;;;;;;;4996378;28;20193;-89
2023/09/06 07:11:14;;;;;;;9.50;8.50;;;;;;;;;;4986558;28;20288;-89
2023/09/06 07:13:40;;;;;;;11.17;7.70;;;;;;;;;;5024520;28;20177;-89
2023/09/06 07:16:07;;;;;;;9.17;8.07;;;;;;;;;;5027067;28;20216;-89
2023/09/06 07:18:34;;;;;;;11.13;7.97;;;;;;;;;;5032679;28;20188;-89
2023/09/06 07:21:00;;;;;;;8.80;8.00;;;;;;;;;;5016461;28;20205;-89
2023/09/06 07:23:27;;;;;;;12.23;8.17;;;;;;;;;;5016143;28;20191;-89
2023/09/06 07:25:53;;;;;;;9.63;8.23;;;;;;;;;;5016668;28;20192;-89
2023/09/06 07:28:25;;;;;;;11.23;8.53;;;;;;;;;;5016463;28;20184;-89
2023/09/06 07:30:51;;;;;;;8.77;7.90;;;;;;;;;;5016888;28;20212;-91
2023/09/06 07:33:17;;;;;;;10.63;8.20;;;;;;;;;;5016452;28;20177;-88
2023/09/06 07:35:46;;;;;;;9.30;7.80;;;;;;;;;;5017406;28;20176;-89
2023/09/06 07:38:12;;;;;;;10.40;8.10;;;;;;;;;;4996729;28;20212;-88
2023/09/06 07:40:38;;;;;;;8.67;7.83;;;;;;;;;;5020243;28;20188;-88
2023/09/06 07:43:06;;;;;;;10.97;8.00;;;;;;;;;;5018483;28;20188;-87
2023/09/06 07:45:32;;;;;;;12.03;7.67;;;;;;;;;;5003272;28;20184;-87
2023/09/06 07:48:01;;;;;;;11.00;7.23;;;;;;;;;;5019056;28;20263;-88
2023/09/06 07:50:29;;;;;;;7.63;6.83;;;;;;;;;;5019986;28;20205;-88
2023/09/06 07:52:55;;;;;;;9.77;6.27;;;;;;;;;;5000253;28;20296;-87
2023/09/06 07:55:21;;;;;;;6.93;5.83;;;;;;;;;;4999736;28;20235;-88
2023/09/06 07:57:48;;;;;;;7.17;5.80;;;;;;;;;;5002597;28;20204;-88
2023/09/06 08:00:14;;;;;;;6.07;5.30;;;;;;;;;;5017458;28;20180;-87
2023/09/06 08:02:40;;;;;;;8.67;5.50;;;;;;;;;;4997826;28;20191;-87
2023/09/06 08:05:07;;;;;;;7.50;5.20;;;;;;;;;;5018676;28;20176;-88
2023/09/06 08:07:33;;;;;;;8.33;5.37;;;;;;;;;;4998064;28;20189;-87
2023/09/06 08:10:01;;;;;;;6.70;4.63;;;;;;;;;;5009271;28;20177;-88
2023/09/06 08:12:27;;;;;;;5.93;4.23;;;;;;;;;;5008983;28;20291;-89
2023/09/06 08:14:53;;;;;;;5.07;4.53;;;;;;;;;;5010230;28;20197;-89
2023/09/06 08:17:21;;;;;;;6.70;4.67;;;;;;;;;;5016619;28;20182;-87
2023/09/06 08:19:47;;;;;;;6.50;4.60;;;;;;;;;;5015987;28;20188;-86
2023/09/06 08:22:13;;;;;;;5.70;4.30;;;;;;;;;;4983627;28;20189;-88
2023/09/06 08:24:39;;;;;;;7.03;4.53;;;;;;;;;;4983749;28;20327;-89
2023/09/06 08:27:08;;;;;;;5.55;4.78;;;;;;;;;;4983033;28;20473;-89
2023/09/06 08:29:34;;;;;;;6.80;4.27;;;;;;;;;;5016096;28;20181;-89
2023/09/06 08:32:11;;;;;;;6.13;4.10;;;;;;;;;;4999605;28;20510;-89
2023/09/06 08:34:40;;;;;;;7.55;4.10;;;;;;;;;;5003537;28;20412;-88
2023/09/06 08:37:07;;;;;;;7.28;4.38;;;;;;;;;;5028313;28;20420;-88
2023/09/06 08:39:34;;;;;;;6.75;4.60;;;;;;;;;;5029084;28;20404;-88
2023/09/06 08:42:06;;;;;;;6.23;4.23;;;;;;;;;;4990643;28;20186;-89
2023/09/06 08:44:32;;;;;;;8.37;4.57;;;;;;;;;;5026833;28;20176;-89
2023/09/06 08:47:02;;;;;;;6.45;4.00;;;;;;;;;;5024115;28;20185;-89
2023/09/06 08:49:32;;;;;;;7.88;3.83;;;;;;;;;;5035850;28;20176;-90
2023/09/06 08:52:01;;;;;;;8.32;3.97;;;;;;;;;;5034948;28;20253;-91
2023/09/06 08:54:30;;;;;;;5.57;3.60;;;;;;;;;;5035883;28;20169;-91
2023/09/06 09:00:35;;;;;;;5.15;3.70;;;;;;;;;;4995978;28;20205;-91
2023/09/06 09:03:09;;;;;;;6.90;3.80;;;;;;;;;;4991767;28;20209;-90
2023/09/06 09:05:36;;;;;;;4.32;3.53;;;;;;;;;;4995909;28;20185;-90
2023/09/06 09:08:04;;;;;;;4.75;3.22;;;;;;;;;;4995990;28;20201;-90
2023/09/06 09:10:32;;;;;;;4.93;3.40;;;;;;;;;;4995871;28;20201;-91
2023/09/06 09:12:59;;;;;;;6.53;3.50;;;;;;;;;;5008405;28;20178;-89
2023/09/06 09:15:30;;;;;;;5.20;3.53;;;;;;;;;;4995192;28;20269;-89
2023/09/06 09:17:56;;;;;;;5.18;3.65;;;;;;;;;;4995402;28;20263;-89
2023/09/06 09:20:22;;;;;;;9.38;3.53;;;;;;;;;;4984440;28;20209;-89
2023/09/06 09:22:51;;;;;;;7.95;3.60;;;;;;;;;;4986418;28;20178;-90
2023/09/06 09:25:23;;;;;;;7.10;3.65;;;;;;;;;;4976062;28;20185;-89
2023/09/06 09:27:55;;;;;;;6.18;3.88;;;;;;;;;;4975862;28;20178;-89
2023/09/06 09:30:21;;;;;;;7.00;3.55;;;;;;;;;;4975781;28;20218;-89
2023/09/06 09:32:56;;;;;;;8.50;3.88;;;;;;;;;;4975960;28;20233;-90
2023/09/06 09:35:26;;;;;;;6.78;3.60;;;;;;;;;;4976017;28;20221;-90
2023/09/06 09:37:52;;;;;;;8.65;4.10;;;;;;;;;;4975744;28;20179;-89
2023/09/06 09:40:20;;;;;;;5.60;3.75;;;;;;;;;;4975404;28;20179;-89
2023/09/06 09:43:01;;;;;;;7.80;3.40;;;;;;;;;;4975649;28;20178;-91
2023/09/06 09:45:33;;;;;;;5.57;4.05;;;;;;;;;;4975345;28;20205;-88
2023/09/06 09:47:59;;;;;;;6.72;3.78;;;;;;;;;;4976698;28;20273;-90
2023/09/06 09:50:32;;;;;;;7.65;3.90;;;;;;;;;;4991526;28;20206;-89
2023/09/06 09:53:03;;;;;;;7.10;3.95;;;;;;;;;;4975727;28;20198;-90
2023/09/06 09:55:34;;;;;;;4.65;3.60;;;;;;;;;;4976864;28;20174;-90
2023/09/06 09:58:05;;;;;;;5.82;3.88;;;;;;;;;;4998291;28;20271;-89
2023/09/06 10:00:33;;;;;;;5.25;3.60;;;;;;;;;;4998819;28;20181;-90
2023/09/06 10:03:00;;;;;;;6.05;4.00;;;;;;;;;;4997581;28;20209;-90
2023/09/06 10:05:32;;;;;;;7.60;3.90;;;;;;;;;;4997696;28;20177;-90
2023/09/06 10:07:58;;;;;;;4.78;3.67;;;;;;;;;;4997879;28;20177;-86
2023/09/06 10:10:28;;;;;;;6.43;3.90;;;;;;;;;;4997389;28;20292;-88
2023/09/06 10:12:54;;;;;;;5.20;3.42;;;;;;;;;;4997708;28;20204;-88
2023/09/06 10:15:23;;;;;;;5.53;3.50;;;;;;;;;;4997535;28;20181;-88
2023/09/06 10:17:50;;;;;;;5.68;3.53;;;;;;;;;;4997849;28;20177;-86
2023/09/06 10:20:22;;;;;;;6.47;3.92;;;;;;;;;;4997573;28;20181;-88
2023/09/06 10:22:50;;;;;;;7.55;3.33;;;;;;;;;;4997538;28;20177;-88
2023/09/06 10:25:16;;;;;;;4.93;3.63;;;;;;;;;;4997480;28;20189;-86
2023/09/06 10:27:49;;;;;;;4.78;3.67;;;;;;;;;;4981231;28;20189;-87
2023/09/06 10:30:17;;;;;;;6.55;3.63;;;;;;;;;;4997179;28;20173;-88
2023/09/06 10:32:46;;;;;;;4.88;3.35;;;;;;;;;;4997260;28;20243;-88
2023/09/06 10:35:27;;;;;;;7.65;3.50;;;;;;;;;;4997146;28;20173;-87
2023/09/06 10:38:06;;;;;;;4.57;3.45;;;;;;;;;;4997718;28;20173;-87
2023/09/06 10:41:02;;;;;;;4.20;3.50;;;;;;;;;;4997400;28;20263;-86
2023/09/06 10:43:42;;;;;;;6.28;3.50;;;;;;;;;;4975040;28;20276;-88
2023/09/06 10:46:08;;;;;;;6.68;3.53;;;;;;;;;;4996827;28;20177;-86
2023/09/06 10:48:34;;;;;;;4.97;3.53;;;;;;;;;;4997252;28;20181;-87
2023/09/06 10:51:04;;;;;;;5.43;3.47;;;;;;;;;;4996908;28;20208;-86
2023/09/06 10:53:31;;;;;;;5.97;3.30;;;;;;;;;;4997047;28;20217;-87
2023/09/06 10:55:59;;;;;;;3.90;3.47;;;;;;;;;;4996714;28;20174;-86
2023/09/06 10:58:28;;;;;;;5.47;3.47;;;;;;;;;;5000195;28;20181;-87
2023/09/06 11:01:18;;;;;;;5.30;3.33;;;;;;;;;;5016776;28;20211;-87
2023/09/06 11:03:51;;;;;;;5.72;3.50;;;;;;;;;;5016653;28;20223;-87
2023/09/06 11:06:18;;;;;;;6.47;3.70;;;;;;;;;;5016132;28;20184;-87
2023/09/06 11:08:47;;;;;;;5.43;3.40;;;;;;;;;;5016471;28;20185;-86
2023/09/06 11:11:14;;;;;;;6.78;3.45;;;;;;;;;;5016249;28;20265;-87
2023/09/06 11:13:48;;;;;;;4.25;3.50;;;;;;;;;;5016201;28;20207;-87
2023/09/06 11:16:15;;;;;;;7.75;3.50;;;;;;;;;;5022275;28;20178;-87
2023/09/06 11:18:49;;;;;;;4.25;3.80;;;;;;;;;;5023066;28;20173;-86
2023/09/06 11:21:18;;;;;;;6.18;3.45;;;;;;;;;;5022771;28;20232;-86
2023/09/06 11:23:48;;;;;;;4.15;3.38;;;;;;;;;;5022868;28;20180;-86
2023/09/06 11:26:17;;;;;;;5.80;3.70;;;;;;;;;;5006773;28;20275;-86
2023/09/06 11:28:44;;;;;;;5.10;3.80;;;;;;;;;;5022127;28;20441;-86
2023/09/06 11:31:24;;;;;;;4.97;3.78;;;;;;;;;;5021950;28;20432;-87
2023/09/06 11:33:55;;;;;;;5.07;3.78;;;;;;;;;;5021807;28;20409;-87
2023/09/06 11:36:26;;;;;;;7.40;3.80;;;;;;;;;;5022127;28;20441;-86
2023/09/06 11:38:57;;;;;;;5.18;3.80;;;;;;;;;;5022008;28;20489;-87
2023/09/06 11:41:35;;;;;;;5.10;4.10;;;;;;;;;;5021781;28;20405;-87
2023/09/06 11:44:07;;;;;;;4.68;3.92;;;;;;;;;;5021961;28;20430;-89
2023/09/06 11:46:42;;;;;;;6.78;4.43;;;;;;;;;;5021915;28;20409;-89
2023/09/06 11:49:11;;;;;;;5.80;4.00;;;;;;;;;;5017134;28;20480;-90
2023/09/06 11:51:38;;;;;;;6.47;4.17;;;;;;;;;;5001653;28;20434;-88
2023/09/06 11:54:09;;;;;;;5.95;4.13;;;;;;;;;;5001092;28;20425;-88
2023/09/06 11:56:39;;;;;;;5.20;3.60;;;;;;;;;;5003097;28;20221;-88
2023/09/06 11:59:12;;;;;;;6.10;3.90;;;;;;;;;;5003060;28;20173;-88
2023/09/06 12:01:44;;;;;;;6.22;3.75;;;;;;;;;;5001972;28;20407;-88
2023/09/06 12:04:16;;;;;;;5.70;3.80;;;;;;;;;;5002400;28;20414;-87
2023/09/06 12:06:42;;;;;;;5.73;3.80;;;;;;;;;;5001844;28;20417;-87
2023/09/06 12:09:18;;;;;;;4.32;3.60;;;;;;;;;;4986568;28;20188;-88
2023/09/06 12:11:44;;;;;;;5.35;3.63;;;;;;;;;;5002246;28;20426;-87
2023/09/06 12:14:11;;;;;;;4.45;3.70;;;;;;;;;;5001855;28;20407;-86
2023/09/06 12:16:39;;;;;;;5.68;3.95;;;;;;;;;;5002053;28;20419;-87
2023/09/06 12:19:11;;;;;;;5.05;3.35;;;;;;;;;;5002781;28;20169;-87
2023/09/06 12:21:37;;;;;;;5.05;3.80;;;;;;;;;;5001612;28;20427;-88
2023/09/06 12:24:03;;;;;;;3.80;3.40;;;;;;;;;;5001549;28;20486;-87
2023/09/06 12:26:29;;;;;;;5.18;3.80;;;;;;;;;;4983258;28;20411;-87
2023/09/06 12:28:55;;;;;;;5.30;3.80;;;;;;;;;;4998580;28;20410;-87
2023/09/06 12:31:24;;;;;;;6.00;3.70;;;;;;;;;;4982510;28;20441;-88
2023/09/06 12:33:51;;;;;;;4.47;3.70;;;;;;;;;;4998536;28;20415;-87
2023/09/06 12:36:20;;;;;;;4.53;3.50;;;;;;;;;;4982537;28;20411;-87
2023/09/06 12:38:46;;;;;;;5.43;3.73;;;;;;;;;;4998663;28;20422;-87
2023/09/06 12:41:12;;;;;;;4.07;3.70;;;;;;;;;;4998596;28;20447;-88
2023/09/06 12:43:38;;;;;;;6.90;3.80;;;;;;;;;;4998385;28;20510;-87
2023/09/06 12:46:07;;;;;;;4.63;3.60;;;;;;;;;;4998393;28;20446;-89
2023/09/06 12:48:34;;;;;;;3.72;3.40;;;;;;;;;;4998447;28;20411;-89
2023/09/06 12:51:00;;;;;;;5.93;3.60;;;;;;;;;;4998364;28;20431;-88
2023/09/06 12:53:29;;;;;;;5.45;3.60;;;;;;;;;;4982488;28;20419;-88
2023/09/06 12:55:55;;;;;;;4.20;3.80;;;;;;;;;;4998494;28;20407;-89
2023/09/06 12:58:21;;;;;;;4.18;3.75;;;;;;;;;;4995324;28;20432;-88
2023/09/06 13:00:50;;;;;;;6.25;3.55;;;;;;;;;;4995399;28;20421;-89
2023/09/06 13:03:19;;;;;;;5.00;3.83;;;;;;;;;;4995370;28;20514;-86
2023/09/06 13:05:48;;;;;;;6.28;3.58;;;;;;;;;;4978343;28;20440;-85
2023/09/06 13:08:14;;;;;;;4.30;3.33;;;;;;;;;;4995269;28;20416;-86
2023/09/06 13:10:40;;;;;;;7.17;3.43;;;;;;;;;;4995214;28;20429;-86
2023/09/06 13:13:06;;;;;;;5.10;3.47;;;;;;;;;;4995363;28;20404;-85
2023/09/06 13:15:35;;;;;;;4.53;3.47;;;;;;;;;;4994530;28;20440;-85
2023/09/06 13:18:01;;;;;;;4.10;3.57;;;;;;;;;;4978512;28;20425;-84
2023/09/06 13:20:27;;;;;;;4.47;3.38;;;;;;;;;;4995031;28;20423;-85
2023/09/06 13:22:57;;;;;;;4.00;3.60;;;;;;;;;;4995169;28;20491;-86
2023/09/06 13:25:23;;;;;;;4.97;3.60;;;;;;;;;;4994486;28;20415;-85
2023/09/06 13:27:49;;;;;;;5.63;3.50;;;;;;;;;;4994956;28;20424;-85
2023/09/06 13:30:17;;;;;;;5.20;3.22;;;;;;;;;;4994986;28;20423;-86
2023/09/06 13:32:43;;;;;;;5.10;3.45;;;;;;;;;;4978838;28;20420;-86
2023/09/06 13:35:10;;;;;;;4.63;3.60;;;;;;;;;;4994859;28;20404;-85
2023/09/06 13:37:36;;;;;;;4.22;3.40;;;;;;;;;;4994423;28;20405;-84
2023/09/06 13:40:07;;;;;;;5.07;3.40;;;;;;;;;;4978265;28;20421;-87
2023/09/06 13:42:33;;;;;;;3.73;3.30;;;;;;;;;;4994696;28;20412;-87
2023/09/06 13:45:04;;;;;;;4.03;3.40;;;;;;;;;;4994642;28;20405;-85
2023/09/06 13:47:30;;;;;;;4.32;3.08;;;;;;;;;;4994306;28;20446;-85
2023/09/06 13:50:00;;;;;;;4.00;3.20;;;;;;;;;;4996459;28;20419;-86
2023/09/06 13:52:26;;;;;;;5.77;3.20;;;;;;;;;;5013599;28;20505;-85
2023/09/06 13:54:52;;;;;;;3.50;3.20;;;;;;;;;;5014181;28;20415;-85
2023/09/06 13:57:22;;;;;;;4.55;3.15;;;;;;;;;;5014388;28;20435;-88
2023/09/06 13:59:48;;;;;;;8.25;3.42;;;;;;;;;;5013828;28;20403;-89
2023/09/06 14:02:16;;;;;;;5.13;3.38;;;;;;;;;;5013731;28;20459;-89
2023/09/06 14:04:47;;;;;;;4.60;3.33;;;;;;;;;;5014164;28;20469;-89
2023/09/06 14:07:13;;;;;;;5.05;3.20;;;;;;;;;;4997835;28;20419;-87
2023/09/06 14:09:48;;;;;;;5.53;3.20;;;;;;;;;;4997954;28;20447;-87
2023/09/06 14:12:14;;;;;;;3.92;3.30;;;;;;;;;;5013750;28;20499;-89
2023/09/06 14:14:40;;;;;;;3.50;3.20;;;;;;;;;;5014147;28;20403;-89
2023/09/06 14:17:06;;;;;;;4.18;3.25;;;;;;;;;;5013976;28;20411;-88
2023/09/06 14:19:32;;;;;;;3.60;3.20;;;;;;;;;;5014117;28;20399;-88
2023/09/06 14:22:08;;;;;;;5.07;3.28;;;;;;;;;;4997285;28;20423;-89
2023/09/06 14:24:34;;;;;;;4.68;3.28;;;;;;;;;;4998459;28;20427;-88
2023/09/06 14:27:06;;;;;;;4.53;3.20;;;;;;;;;;4997558;28;20476;-89
2023/09/06 14:29:32;;;;;;;5.45;3.50;;;;;;;;;;5012870;28;20421;-87
2023/09/06 14:32:01;;;;;;;6.55;3.25;;;;;;;;;;5013238;28;20458;-89
2023/09/06 14:34:27;;;;;;;3.95;2.95;;;;;;;;;;5013634;28;20408;-88
2023/09/06 14:36:53;;;;;;;3.22;2.92;;;;;;;;;;5013774;28;20447;-88
2023/09/06 14:39:23;;;;;;;3.20;2.83;;;;;;;;;;5013477;28;20410;-89
2023/09/06 14:41:49;;;;;;;3.60;2.93;;;;;;;;;;5013641;28;20418;-89
2023/09/06 14:44:17;;;;;;;5.38;2.97;;;;;;;;;;5013457;28;20423;-88
2023/09/06 14:46:47;;;;;;;3.85;3.00;;;;;;;;;;5013458;28;20414;-90
2023/09/06 14:49:14;;;;;;;3.20;2.83;;;;;;;;;;5012248;28;20407;-90
2023/09/06 14:51:42;;;;;;;5.10;3.08;;;;;;;;;;4995923;28;20442;-89
2023/09/06 14:54:08;;;;;;;3.75;2.90;;;;;;;;;;5013111;28;20408;-89